sensor_id;sensor_type;location;lat;lon;timestamp;pressure;altitude;pressure_sealevel;temperature;humidity
47742;BME280;33504;52.066;6.096;2023-01-27T00:01:20;102431.09;;;6.68;45.87
47742;BME280;33504;52.066;6.096;2023-01-27T00:03:47;102435.08;;;6.42;46.50
47742;BME280;33504;52.066;6.096;2023-01-27T00:06:14;102432.73;;;6.39;46.35
47742;BME280;33504;52.066;6.096;2023-01-27T00:08:41;102435.06;;;6.79;46.14
47742;BME280;33504;52.066;6.096;2023-01-27T00:11:08;102437.95;;;6.55;46.59
47742;BME280;33504;52.066;6.096;2023-01-27T00:13:36;102432.91;;;6.57;46.40
47742;BME280;33504;52.066;6.096;2023-01-27T00:16:03;102428.23;;;6.62;45.96
47742;BME280;33504;52.066;6.096;2023-01-27T00:18:31;102429.37;;;6.77;46.21
47742;BME280;33504;52.066;6.096;2023-01-27T00:20:58;102432.17;;;6.73;46.17
47742;BME280;33504;52.066;6.096;2023-01-27T00:23:26;102429.07;;;6.41;46.17
47742;BME280;33504;52.066;6.096;2023-01-27T00:25:53;102427.78;;;5.96;46.80
47742;BME280;33504;52.066;6.096;2023-01-27T00:28:20;102430.40;;;5.52;47.43
47742;BME280;33504;52.066;6.096;2023-01-27T00:30:47;102430.41;;;6.07;46.76
47742;BME280;33504;52.066;6.096;2023-01-27T00:33:14;102427.17;;;6.37;46.47
47742;BME280;33504;52.066;6.096;2023-01-27T00:35:41;102428.40;;;6.72;46.00
47742;BME280;33504;52.066;6.096;2023-01-27T00:38:08;102428.16;;;6.70;46.13
47742;BME280;33504;52.066;6.096;2023-01-27T00:40:35;102433.42;;;6.60;46.30
47742;BME280;33504;52.066;6.096;2023-01-27T00:43:02;102432.49;;;6.74;45.87
47742;BME280;33504;52.066;6.096;2023-01-27T00:45:29;102435.11;;;7.07;45.71
47742;BME280;33504;52.066;6.096;2023-01-27T00:47:56;102438.21;;;6.97;45.76
47742;BME280;33504;52.066;6.096;2023-01-27T00:50:23;102434.69;;;6.97;45.26
47742;BME280;33504;52.066;6.096;2023-01-27T00:52:50;102438.98;;;7.02;45.55
47742;BME280;33504;52.066;6.096;2023-01-27T00:55:17;102436.57;;;7.12;45.18
47742;BME280;33504;52.066;6.096;2023-01-27T00:57:44;102437.96;;;6.67;45.44
47742;BME280;33504;52.066;6.096;2023-01-27T01:00:12;102442.13;;;6.99;45.61
47742;BME280;33504;52.066;6.096;2023-01-27T01:02:40;102438.39;;;6.90;45.44
47742;BME280;33504;52.066;6.096;2023-01-27T01:05:07;102437.82;;;7.24;45.35
47742;BME280;33504;52.066;6.096;2023-01-27T01:07:34;102441.28;;;6.98;45.30
47742;BME280;33504;52.066;6.096;2023-01-27T01:10:01;102440.42;;;7.08;45.21
47742;BME280;33504;52.066;6.096;2023-01-27T01:12:28;102445.96;;;7.11;45.19
47742;BME280;33504;52.066;6.096;2023-01-27T01:14:55;102446.64;;;7.15;45.20
47742;BME280;33504;52.066;6.096;2023-01-27T01:17:22;102446.42;;;7.29;45.38
47742;BME280;33504;52.066;6.096;2023-01-27T01:19:49;102449.31;;;7.10;45.26
47742;BME280;33504;52.066;6.096;2023-01-27T01:22:16;102452.60;;;7.09;45.24
47742;BME280;33504;52.066;6.096;2023-01-27T01:24:43;102460.69;;;6.74;45.51
47742;BME280;33504;52.066;6.096;2023-01-27T01:27:10;102462.92;;;6.97;45.47
47742;BME280;33504;52.066;6.096;2023-01-27T01:29:38;102465.44;;;7.24;45.29
47742;BME280;33504;52.066;6.096;2023-01-27T01:32:05;102462.05;;;6.83;45.52
47742;BME280;33504;52.066;6.096;2023-01-27T01:34:32;102459.48;;;7.16;45.40
47742;BME280;33504;52.066;6.096;2023-01-27T01:36:59;102462.72;;;6.89;45.40
47742;BME280;33504;52.066;6.096;2023-01-27T01:39:26;102464.07;;;6.99;45.64
47742;BME280;33504;52.066;6.096;2023-01-27T01:41:53;102465.25;;;6.48;46.20
47742;BME280;33504;52.066;6.096;2023-01-27T01:44:22;102462.37;;;6.92;45.98
47742;BME280;33504;52.066;6.096;2023-01-27T01:46:50;102466.26;;;6.72;46.19
47742;BME280;33504;52.066;6.096;2023-01-27T01:49:19;102469.80;;;6.54;46.22
47742;BME280;33504;52.066;6.096;2023-01-27T01:51:50;102469.23;;;7.00;45.84
47742;BME280;33504;52.066;6.096;2023-01-27T01:54:22;102462.20;;;6.51;46.29
47742;BME280;33504;52.066;6.096;2023-01-27T01:56:54;102470.30;;;6.55;46.60
47742;BME280;33504;52.066;6.096;2023-01-27T01:59:24;102472.24;;;6.71;46.40
47742;BME280;33504;52.066;6.096;2023-01-27T02:01:54;102472.90;;;6.58;46.22
47742;BME280;33504;52.066;6.096;2023-01-27T02:04:25;102472.47;;;6.62;46.19
47742;BME280;33504;52.066;6.096;2023-01-27T02:07:01;102471.92;;;6.60;46.32
47742;BME280;33504;52.066;6.096;2023-01-27T02:09:30;102472.64;;;6.69;46.19
47742;BME280;33504;52.066;6.096;2023-01-27T02:11:58;102476.86;;;6.44;46.79
47742;BME280;33504;52.066;6.096;2023-01-27T02:14:26;102478.23;;;6.90;46.42
47742;BME280;33504;52.066;6.096;2023-01-27T02:16:53;102475.62;;;6.80;46.16
47742;BME280;33504;52.066;6.096;2023-01-27T02:19:24;102479.34;;;6.59;46.55
47742;BME280;33504;52.066;6.096;2023-01-27T02:21:55;102479.54;;;6.77;46.84
47742;BME280;33504;52.066;6.096;2023-01-27T02:24:28;102481.14;;;6.70;46.93
47742;BME280;33504;52.066;6.096;2023-01-27T02:26:57;102475.83;;;6.63;46.90
47742;BME280;33504;52.066;6.096;2023-01-27T02:29:25;102478.21;;;6.72;46.95
47742;BME280;33504;52.066;6.096;2023-01-27T02:31:52;102483.01;;;6.68;47.02
47742;BME280;33504;52.066;6.096;2023-01-27T02:34:27;102486.69;;;6.02;47.72
47742;BME280;33504;52.066;6.096;2023-01-27T02:36:59;102486.95;;;5.83;48.42
47742;BME280;33504;52.066;6.096;2023-01-27T02:39:31;102493.40;;;5.43;49.08
47742;BME280;33504;52.066;6.096;2023-01-27T02:42:01;102492.63;;;5.45;48.70
47742;BME280;33504;52.066;6.096;2023-01-27T02:44:30;102490.29;;;5.82;48.73
47742;BME280;33504;52.066;6.096;2023-01-27T02:46:58;102492.04;;;5.74;48.48
47742;BME280;33504;52.066;6.096;2023-01-27T02:49:25;102498.33;;;6.11;47.77
47742;BME280;33504;52.066;6.096;2023-01-27T02:51:52;102496.34;;;6.17;47.71
47742;BME280;33504;52.066;6.096;2023-01-27T02:54:19;102495.21;;;6.05;48.12
47742;BME280;33504;52.066;6.096;2023-01-27T02:56:46;102496.58;;;6.31;47.74
47742;BME280;33504;52.066;6.096;2023-01-27T02:59:13;102498.54;;;6.44;47.47
47742;BME280;33504;52.066;6.096;2023-01-27T03:01:40;102499.61;;;6.27;48.18
47742;BME280;33504;52.066;6.096;2023-01-27T03:04:07;102497.04;;;5.59;48.73
47742;BME280;33504;52.066;6.096;2023-01-27T03:06:34;102495.67;;;6.12;47.65
47742;BME280;33504;52.066;6.096;2023-01-27T03:09:01;102496.52;;;6.11;47.81
47742;BME280;33504;52.066;6.096;2023-01-27T03:11:28;102503.58;;;6.03;47.73
47742;BME280;33504;52.066;6.096;2023-01-27T03:13:55;102505.27;;;6.19;47.47
47742;BME280;33504;52.066;6.096;2023-01-27T03:16:22;102501.05;;;5.90;47.55
47742;BME280;33504;52.066;6.096;2023-01-27T03:18:49;102508.63;;;5.76;47.78
47742;BME280;33504;52.066;6.096;2023-01-27T03:21:17;102510.74;;;5.90;47.38
47742;BME280;33504;52.066;6.096;2023-01-27T03:23:45;102508.78;;;5.87;47.50
47742;BME280;33504;52.066;6.096;2023-01-27T03:26:12;102509.82;;;5.99;47.45
47742;BME280;33504;52.066;6.096;2023-01-27T03:28:39;102511.43;;;5.65;47.83
47742;BME280;33504;52.066;6.096;2023-01-27T03:31:07;102507.33;;;6.11;47.24
47742;BME280;33504;52.066;6.096;2023-01-27T03:33:35;102512.31;;;5.99;47.31
47742;BME280;33504;52.066;6.096;2023-01-27T03:36:03;102511.20;;;5.55;47.73
47742;BME280;33504;52.066;6.096;2023-01-27T03:38:29;102514.26;;;6.13;46.58
47742;BME280;33504;52.066;6.096;2023-01-27T03:40:57;102515.89;;;6.27;46.36
47742;BME280;33504;52.066;6.096;2023-01-27T03:43:24;102518.07;;;6.43;46.28
47742;BME280;33504;52.066;6.096;2023-01-27T03:45:51;102516.62;;;6.36;46.49
47742;BME280;33504;52.066;6.096;2023-01-27T03:48:18;102513.87;;;6.11;46.67
47742;BME280;33504;52.066;6.096;2023-01-27T03:50:45;102518.59;;;6.52;46.11
47742;BME280;33504;52.066;6.096;2023-01-27T03:53:12;102511.95;;;6.11;46.26
47742;BME280;33504;52.066;6.096;2023-01-27T03:55:39;102517.20;;;6.22;46.20
47742;BME280;33504;52.066;6.096;2023-01-27T03:58:17;102514.40;;;6.17;46.24
47742;BME280;33504;52.066;6.096;2023-01-27T04:00:44;102517.82;;;5.96;46.21
47742;BME280;33504;52.066;6.096;2023-01-27T04:03:11;102519.71;;;5.86;46.20
47742;BME280;33504;52.066;6.096;2023-01-27T04:05:38;102520.11;;;5.79;46.40
47742;BME280;33504;52.066;6.096;2023-01-27T04:08:06;102519.33;;;6.05;46.17
47742;BME280;33504;52.066;6.096;2023-01-27T04:10:33;102520.25;;;6.19;46.14
47742;BME280;33504;52.066;6.096;2023-01-27T04:13:00;102526.34;;;6.10;46.21
47742;BME280;33504;52.066;6.096;2023-01-27T04:15:27;102527.44;;;6.45;45.78
47742;BME280;33504;52.066;6.096;2023-01-27T04:17:54;102525.77;;;6.13;46.08
47742;BME280;33504;52.066;6.096;2023-01-27T04:20:21;102530.64;;;5.57;46.99
47742;BME280;33504;52.066;6.096;2023-01-27T04:22:47;102529.73;;;5.80;46.97
47742;BME280;33504;52.066;6.096;2023-01-27T04:25:14;102530.89;;;5.77;47.00
47742;BME280;33504;52.066;6.096;2023-01-27T04:27:42;102536.09;;;5.68;47.34
47742;BME280;33504;52.066;6.096;2023-01-27T04:30:10;102540.28;;;5.68;47.27
47742;BME280;33504;52.066;6.096;2023-01-27T04:32:37;102537.46;;;5.95;47.10
47742;BME280;33504;52.066;6.096;2023-01-27T04:35:04;102537.84;;;5.80;47.07
47742;BME280;33504;52.066;6.096;2023-01-27T04:37:32;102540.40;;;6.02;46.92
47742;BME280;33504;52.066;6.096;2023-01-27T04:39:59;102540.81;;;5.77;46.99
47742;BME280;33504;52.066;6.096;2023-01-27T04:42:26;102538.21;;;5.91;46.87
47742;BME280;33504;52.066;6.096;2023-01-27T04:44:53;102538.45;;;5.39;47.38
47742;BME280;33504;52.066;6.096;2023-01-27T04:47:20;102537.21;;;5.59;47.23
47742;BME280;33504;52.066;6.096;2023-01-27T04:49:47;102536.29;;;6.06;46.60
47742;BME280;33504;52.066;6.096;2023-01-27T04:52:13;102536.52;;;6.03;46.21
47742;BME280;33504;52.066;6.096;2023-01-27T04:54:40;102540.24;;;6.32;45.80
47742;BME280;33504;52.066;6.096;2023-01-27T04:57:07;102540.78;;;6.12;46.27
47742;BME280;33504;52.066;6.096;2023-01-27T04:59:34;102542.55;;;6.30;45.99
47742;BME280;33504;52.066;6.096;2023-01-27T05:02:01;102545.15;;;6.37;46.00
47742;BME280;33504;52.066;6.096;2023-01-27T05:04:28;102544.91;;;6.60;45.68
47742;BME280;33504;52.066;6.096;2023-01-27T05:06:55;102546.04;;;6.71;45.46
47742;BME280;33504;52.066;6.096;2023-01-27T05:09:22;102546.55;;;6.73;45.27
47742;BME280;33504;52.066;6.096;2023-01-27T05:11:49;102545.65;;;6.81;44.89
47742;BME280;33504;52.066;6.096;2023-01-27T05:14:16;102546.37;;;7.04;44.59
47742;BME280;33504;52.066;6.096;2023-01-27T05:16:44;102546.56;;;7.03;44.50
47742;BME280;33504;52.066;6.096;2023-01-27T05:19:11;102545.64;;;6.78;44.76
47742;BME280;33504;52.066;6.096;2023-01-27T05:21:38;102544.80;;;6.93;44.60
47742;BME280;33504;52.066;6.096;2023-01-27T05:24:05;102543.56;;;6.87;44.60
47742;BME280;33504;52.066;6.096;2023-01-27T05:26:32;102542.80;;;6.76;44.49
47742;BME280;33504;52.066;6.096;2023-01-27T05:28:59;102546.97;;;6.87;44.86
47742;BME280;33504;52.066;6.096;2023-01-27T05:31:28;102544.85;;;6.80;44.37
47742;BME280;33504;52.066;6.096;2023-01-27T05:33:58;102543.56;;;7.03;44.41
47742;BME280;33504;52.066;6.096;2023-01-27T05:36:26;102546.01;;;6.94;44.74
47742;BME280;33504;52.066;6.096;2023-01-27T05:38:54;102547.89;;;6.99;45.01
47742;BME280;33504;52.066;6.096;2023-01-27T05:41:22;102547.89;;;6.87;45.32
47742;BME280;33504;52.066;6.096;2023-01-27T05:43:52;102551.63;;;6.89;44.97
47742;BME280;33504;52.066;6.096;2023-01-27T05:46:21;102550.29;;;6.62;44.95
47742;BME280;33504;52.066;6.096;2023-01-27T05:48:49;102551.25;;;6.92;45.13
47742;BME280;33504;52.066;6.096;2023-01-27T05:51:19;102552.77;;;6.68;45.06
47742;BME280;33504;52.066;6.096;2023-01-27T05:53:47;102554.36;;;6.98;45.09
47742;BME280;33504;52.066;6.096;2023-01-27T05:56:16;102556.15;;;6.94;45.16
47742;BME280;33504;52.066;6.096;2023-01-27T05:58:44;102559.74;;;6.83;44.99
47742;BME280;33504;52.066;6.096;2023-01-27T06:01:13;102565.87;;;6.93;44.83
47742;BME280;33504;52.066;6.096;2023-01-27T06:03:42;102570.37;;;6.86;45.02
47742;BME280;33504;52.066;6.096;2023-01-27T06:06:09;102569.87;;;6.74;45.14
47742;BME280;33504;52.066;6.096;2023-01-27T06:08:37;102575.34;;;6.92;44.96
47742;BME280;33504;52.066;6.096;2023-01-27T06:11:05;102572.99;;;6.59;45.31
47742;BME280;33504;52.066;6.096;2023-01-27T06:13:32;102574.31;;;6.86;45.05
47742;BME280;33504;52.066;6.096;2023-01-27T06:16:00;102575.98;;;6.90;44.74
47742;BME280;33504;52.066;6.096;2023-01-27T06:18:28;102582.01;;;6.70;44.85
47742;BME280;33504;52.066;6.096;2023-01-27T06:20:56;102583.81;;;6.93;44.79
47742;BME280;33504;52.066;6.096;2023-01-27T06:23:24;102592.23;;;6.90;44.68
47742;BME280;33504;52.066;6.096;2023-01-27T06:25:51;102589.74;;;6.84;44.74
47742;BME280;33504;52.066;6.096;2023-01-27T06:28:19;102586.42;;;6.77;44.84
47742;BME280;33504;52.066;6.096;2023-01-27T06:30:47;102593.19;;;6.67;44.99
47742;BME280;33504;52.066;6.096;2023-01-27T06:33:13;102597.97;;;6.55;45.16
47742;BME280;33504;52.066;6.096;2023-01-27T06:35:40;102599.95;;;6.25;45.53
47742;BME280;33504;52.066;6.096;2023-01-27T06:38:10;102605.25;;;6.55;45.21
47742;BME280;33504;52.066;6.096;2023-01-27T06:40:37;102607.83;;;6.51;45.22
47742;BME280;33504;52.066;6.096;2023-01-27T06:43:10;102609.50;;;6.50;45.18
47742;BME280;33504;52.066;6.096;2023-01-27T06:45:37;102606.14;;;6.42;45.24
47742;BME280;33504;52.066;6.096;2023-01-27T06:48:04;102598.79;;;6.25;45.32
47742;BME280;33504;52.066;6.096;2023-01-27T06:50:32;102603.21;;;6.50;44.80
47742;BME280;33504;52.066;6.096;2023-01-27T06:53:01;102598.00;;;6.23;44.93
47742;BME280;33504;52.066;6.096;2023-01-27T06:55:29;102599.60;;;6.18;44.84
47742;BME280;33504;52.066;6.096;2023-01-27T06:57:56;102602.46;;;6.23;44.77
47742;BME280;33504;52.066;6.096;2023-01-27T07:00:23;102610.23;;;6.20;44.71
47742;BME280;33504;52.066;6.096;2023-01-27T07:02:50;102614.51;;;5.56;44.80
47742;BME280;33504;52.066;6.096;2023-01-27T07:05:20;102613.24;;;5.97;44.65
47742;BME280;33504;52.066;6.096;2023-01-27T07:07:47;102613.65;;;5.91;44.77
47742;BME280;33504;52.066;6.096;2023-01-27T07:10:14;102616.67;;;5.83;44.87
47742;BME280;33504;52.066;6.096;2023-01-27T07:12:41;102617.90;;;5.91;44.79
47742;BME280;33504;52.066;6.096;2023-01-27T07:15:09;102622.03;;;6.12;44.75
47742;BME280;33504;52.066;6.096;2023-01-27T07:17:37;102627.51;;;5.53;45.10
47742;BME280;33504;52.066;6.096;2023-01-27T07:20:05;102631.12;;;5.95;44.91
47742;BME280;33504;52.066;6.096;2023-01-27T07:22:33;102632.05;;;5.82;44.86
47742;BME280;33504;52.066;6.096;2023-01-27T07:25:00;102634.58;;;6.04;44.98
47742;BME280;33504;52.066;6.096;2023-01-27T07:27:28;102640.41;;;5.88;44.87
47742;BME280;33504;52.066;6.096;2023-01-27T07:29:54;102644.21;;;5.97;44.79
47742;BME280;33504;52.066;6.096;2023-01-27T07:32:22;102642.36;;;6.30;44.93
47742;BME280;33504;52.066;6.096;2023-01-27T07:34:49;102643.73;;;5.96;45.10
47742;BME280;33504;52.066;6.096;2023-01-27T07:37:16;102638.17;;;6.38;45.00
47742;BME280;33504;52.066;6.096;2023-01-27T07:39:43;102646.32;;;6.09;45.41
47742;BME280;33504;52.066;6.096;2023-01-27T07:42:10;102643.60;;;6.02;44.99
47742;BME280;33504;52.066;6.096;2023-01-27T07:44:37;102647.03;;;5.63;45.55
47742;BME280;33504;52.066;6.096;2023-01-27T07:47:04;102652.03;;;5.63;45.42
47742;BME280;33504;52.066;6.096;2023-01-27T07:49:31;102651.24;;;6.11;44.97
47742;BME280;33504;52.066;6.096;2023-01-27T07:51:59;102655.86;;;6.06;44.80
47742;BME280;33504;52.066;6.096;2023-01-27T07:54:26;102656.70;;;6.43;44.71
47742;BME280;33504;52.066;6.096;2023-01-27T07:56:53;102657.58;;;6.19;44.48
47742;BME280;33504;52.066;6.096;2023-01-27T07:59:20;102657.09;;;6.00;44.66
47742;BME280;33504;52.066;6.096;2023-01-27T08:01:47;102655.59;;;6.17;44.58
47742;BME280;33504;52.066;6.096;2023-01-27T08:04:14;102657.31;;;6.14;44.79
47742;BME280;33504;52.066;6.096;2023-01-27T08:06:41;102660.84;;;6.08;44.74
47742;BME280;33504;52.066;6.096;2023-01-27T08:09:08;102662.06;;;5.74;44.97
47742;BME280;33504;52.066;6.096;2023-01-27T08:11:35;102664.28;;;5.70;45.25
47742;BME280;33504;52.066;6.096;2023-01-27T08:14:02;102666.88;;;5.82;45.32
47742;BME280;33504;52.066;6.096;2023-01-27T08:16:29;102677.34;;;5.87;45.05
47742;BME280;33504;52.066;6.096;2023-01-27T08:18:56;102680.56;;;5.33;45.78
47742;BME280;33504;52.066;6.096;2023-01-27T08:21:23;102683.09;;;5.86;45.38
47742;BME280;33504;52.066;6.096;2023-01-27T08:23:50;102685.15;;;5.76;45.19
47742;BME280;33504;52.066;6.096;2023-01-27T08:26:18;102695.03;;;5.94;45.04
47742;BME280;33504;52.066;6.096;2023-01-27T08:28:45;102692.99;;;6.00;44.85
47742;BME280;33504;52.066;6.096;2023-01-27T08:31:13;102697.66;;;5.58;45.36
47742;BME280;33504;52.066;6.096;2023-01-27T08:33:43;102698.42;;;5.50;45.60
47742;BME280;33504;52.066;6.096;2023-01-27T08:36:12;102701.49;;;5.47;45.64
47742;BME280;33504;52.066;6.096;2023-01-27T08:38:41;102692.63;;;5.35;45.70
47742;BME280;33504;52.066;6.096;2023-01-27T08:41:10;102693.94;;;5.77;45.35
47742;BME280;33504;52.066;6.096;2023-01-27T08:43:38;102702.29;;;5.78;45.34
47742;BME280;33504;52.066;6.096;2023-01-27T08:46:05;102699.30;;;5.73;45.32
47742;BME280;33504;52.066;6.096;2023-01-27T08:48:34;102703.15;;;5.90;45.15
47742;BME280;33504;52.066;6.096;2023-01-27T08:51:02;102703.58;;;5.88;45.18
47742;BME280;33504;52.066;6.096;2023-01-27T08:53:30;102699.79;;;5.34;46.18
47742;BME280;33504;52.066;6.096;2023-01-27T08:56:01;102703.45;;;5.45;46.07
47742;BME280;33504;52.066;6.096;2023-01-27T08:58:29;102706.05;;;5.94;45.40
47742;BME280;33504;52.066;6.096;2023-01-27T09:00:58;102701.05;;;5.91;45.51
47742;BME280;33504;52.066;6.096;2023-01-27T09:03:27;102712.02;;;5.84;45.57
47742;BME280;33504;52.066;6.096;2023-01-27T09:05:54;102710.00;;;6.06;45.21
47742;BME280;33504;52.066;6.096;2023-01-27T09:08:22;102714.99;;;5.90;45.68
47742;BME280;33504;52.066;6.096;2023-01-27T09:10:49;102719.66;;;5.91;45.46
47742;BME280;33504;52.066;6.096;2023-01-27T09:13:17;102720.79;;;6.04;45.40
47742;BME280;33504;52.066;6.096;2023-01-27T09:15:44;102722.21;;;5.70;45.98
47742;BME280;33504;52.066;6.096;2023-01-27T09:18:10;102723.23;;;5.46;46.55
47742;BME280;33504;52.066;6.096;2023-01-27T09:20:37;102729.31;;;5.61;46.14
47742;BME280;33504;52.066;6.096;2023-01-27T09:23:04;102737.64;;;5.41;46.51
47742;BME280;33504;52.066;6.096;2023-01-27T09:25:31;102743.47;;;5.72;46.85
47742;BME280;33504;52.066;6.096;2023-01-27T09:27:59;102746.68;;;5.71;46.31
47742;BME280;33504;52.066;6.096;2023-01-27T09:30:27;102745.17;;;5.70;46.11
47742;BME280;33504;52.066;6.096;2023-01-27T09:32:57;102749.09;;;5.90;46.10
47742;BME280;33504;52.066;6.096;2023-01-27T09:35:25;102752.14;;;6.15;45.71
47742;BME280;33504;52.066;6.096;2023-01-27T09:37:54;102750.81;;;6.04;45.77
47742;BME280;33504;52.066;6.096;2023-01-27T09:40:29;102752.19;;;6.32;45.42
47742;BME280;33504;52.066;6.096;2023-01-27T09:43:27;102754.47;;;6.40;45.32
47742;BME280;33504;52.066;6.096;2023-01-27T09:46:17;102757.21;;;6.00;45.96
47742;BME280;33504;52.066;6.096;2023-01-27T09:48:58;102749.99;;;6.21;45.78
47742;BME280;33504;52.066;6.096;2023-01-27T09:51:34;102748.95;;;5.97;45.90
47742;BME280;33504;52.066;6.096;2023-01-27T09:54:15;102748.00;;;6.07;45.93
47742;BME280;33504;52.066;6.096;2023-01-27T09:56:52;102753.63;;;6.29;45.47
47742;BME280;33504;52.066;6.096;2023-01-27T09:59:38;102749.79;;;6.50;45.30
47742;BME280;33504;52.066;6.096;2023-01-27T10:02:20;102754.92;;;6.56;45.02
47742;BME280;33504;52.066;6.096;2023-01-27T10:05:05;102753.22;;;6.27;45.25
47742;BME280;33504;52.066;6.096;2023-01-27T10:07:49;102753.86;;;6.62;45.10
47742;BME280;33504;52.066;6.096;2023-01-27T10:10:30;102753.59;;;6.61;44.88
47742;BME280;33504;52.066;6.096;2023-01-27T10:13:12;102756.74;;;6.39;45.11
47742;BME280;33504;52.066;6.096;2023-01-27T10:15:53;102762.26;;;6.22;45.63
47742;BME280;33504;52.066;6.096;2023-01-27T10:18:36;102761.89;;;6.43;45.16
47742;BME280;33504;52.066;6.096;2023-01-27T10:21:14;102759.48;;;6.54;45.06
47742;BME280;33504;52.066;6.096;2023-01-27T10:23:52;102755.38;;;6.60;45.00
47742;BME280;33504;52.066;6.096;2023-01-27T10:26:29;102749.28;;;6.48;45.22
47742;BME280;33504;52.066;6.096;2023-01-27T10:29:04;102755.36;;;6.75;44.83
47742;BME280;33504;52.066;6.096;2023-01-27T10:31:35;102750.22;;;5.98;45.23
47742;BME280;33504;52.066;6.096;2023-01-27T10:34:11;102748.00;;;6.71;44.87
47742;BME280;33504;52.066;6.096;2023-01-27T10:36:48;102749.42;;;6.22;44.84
47742;BME280;33504;52.066;6.096;2023-01-27T10:39:24;102744.70;;;6.06;45.35
47742;BME280;33504;52.066;6.096;2023-01-27T10:42:00;102745.91;;;6.43;45.02
47742;BME280;33504;52.066;6.096;2023-01-27T10:44:42;102742.60;;;6.02;45.58
47742;BME280;33504;52.066;6.096;2023-01-27T10:47:21;102747.17;;;6.49;45.44
47742;BME280;33504;52.066;6.096;2023-01-27T10:49:56;102746.11;;;6.95;44.79
47742;BME280;33504;52.066;6.096;2023-01-27T10:52:29;102744.01;;;6.73;44.67
47742;BME280;33504;52.066;6.096;2023-01-27T10:55:03;102739.63;;;7.00;44.13
47742;BME280;33504;52.066;6.096;2023-01-27T10:57:35;102733.53;;;7.54;43.79
47742;BME280;33504;52.066;6.096;2023-01-27T11:00:05;102734.05;;;7.51;43.80
47742;BME280;33504;52.066;6.096;2023-01-27T11:02:44;102737.85;;;6.94;43.59
47742;BME280;33504;52.066;6.096;2023-01-27T11:05:19;102735.87;;;7.51;43.42
47742;BME280;33504;52.066;6.096;2023-01-27T11:07:51;102728.18;;;7.17;43.46
47742;BME280;33504;52.066;6.096;2023-01-27T11:10:28;102729.52;;;7.58;43.30
47742;BME280;33504;52.066;6.096;2023-01-27T11:12:58;102730.44;;;7.30;43.58
47742;BME280;33504;52.066;6.096;2023-01-27T11:15:30;102727.09;;;7.67;43.24
47742;BME280;33504;52.066;6.096;2023-01-27T11:18:02;102723.78;;;7.14;43.57
47742;BME280;33504;52.066;6.096;2023-01-27T11:20:33;102725.70;;;7.22;43.11
47742;BME280;33504;52.066;6.096;2023-01-27T11:23:09;102727.19;;;7.56;43.06
47742;BME280;33504;52.066;6.096;2023-01-27T11:25:46;102726.01;;;7.30;42.95
47742;BME280;33504;52.066;6.096;2023-01-27T11:28:22;102725.39;;;7.34;42.91
47742;BME280;33504;52.066;6.096;2023-01-27T11:31:02;102718.88;;;7.69;42.87
47742;BME280;33504;52.066;6.096;2023-01-27T11:33:41;102716.89;;;7.69;42.81
47742;BME280;33504;52.066;6.096;2023-01-27T11:36:13;102716.65;;;7.56;42.99
47742;BME280;33504;52.066;6.096;2023-01-27T11:38:40;102715.42;;;7.73;42.95
47742;BME280;33504;52.066;6.096;2023-01-27T11:41:07;102717.78;;;8.03;42.99
47742;BME280;33504;52.066;6.096;2023-01-27T11:43:34;102713.83;;;7.70;42.65
47742;BME280;33504;52.066;6.096;2023-01-27T11:46:05;102712.77;;;7.86;42.93
47742;BME280;33504;52.066;6.096;2023-01-27T11:48:37;102707.66;;;7.67;43.06
47742;BME280;33504;52.066;6.096;2023-01-27T11:51:07;102707.77;;;7.51;43.45
47742;BME280;33504;52.066;6.096;2023-01-27T11:53:37;102704.46;;;7.60;43.28
47742;BME280;33504;52.066;6.096;2023-01-27T11:56:09;102696.86;;;7.40;43.34
47742;BME280;33504;52.066;6.096;2023-01-27T11:58:46;102693.56;;;7.31;43.10
47742;BME280;33504;52.066;6.096;2023-01-27T12:01:18;102694.14;;;7.27;42.88
47742;BME280;33504;52.066;6.096;2023-01-27T12:03:51;102694.13;;;7.39;42.66
47742;BME280;33504;52.066;6.096;2023-01-27T12:06:30;102687.54;;;7.71;42.54
47742;BME280;33504;52.066;6.096;2023-01-27T12:08:58;102687.11;;;7.56;42.47
47742;BME280;33504;52.066;6.096;2023-01-27T12:11:28;102687.74;;;7.64;42.21
47742;BME280;33504;52.066;6.096;2023-01-27T12:13:57;102684.27;;;7.71;42.41
47742;BME280;33504;52.066;6.096;2023-01-27T12:16:31;102685.70;;;7.71;42.36
47742;BME280;33504;52.066;6.096;2023-01-27T12:19:21;102683.06;;;7.15;42.56
47742;BME280;33504;52.066;6.096;2023-01-27T12:21:54;102681.74;;;7.80;42.56
47742;BME280;33504;52.066;6.096;2023-01-27T12:24:27;102681.28;;;7.30;43.11
47742;BME280;33504;52.066;6.096;2023-01-27T12:26:56;102680.22;;;7.58;42.85
47742;BME280;33504;52.066;6.096;2023-01-27T12:29:26;102677.00;;;7.07;43.64
47742;BME280;33504;52.066;6.096;2023-01-27T12:31:57;102677.03;;;7.17;43.36
47742;BME280;33504;52.066;6.096;2023-01-27T12:34:28;102672.25;;;7.00;43.63
47742;BME280;33504;52.066;6.096;2023-01-27T12:36:57;102674.74;;;7.02;43.99
47742;BME280;33504;52.066;6.096;2023-01-27T12:39:30;102675.92;;;7.34;43.72
47742;BME280;33504;52.066;6.096;2023-01-27T12:41:59;102672.22;;;7.44;43.38
47742;BME280;33504;52.066;6.096;2023-01-27T12:44:27;102675.28;;;7.05;43.71
47742;BME280;33504;52.066;6.096;2023-01-27T12:47:20;102674.60;;;7.34;43.11
47742;BME280;33504;52.066;6.096;2023-01-27T12:49:49;102671.98;;;7.53;43.28
47742;BME280;33504;52.066;6.096;2023-01-27T12:52:19;102675.41;;;7.47;43.20
47742;BME280;33504;52.066;6.096;2023-01-27T12:54:47;102671.86;;;7.36;43.32
47742;BME280;33504;52.066;6.096;2023-01-27T12:57:18;102676.50;;;7.77;42.90
47742;BME280;33504;52.066;6.096;2023-01-27T12:59:48;102675.46;;;7.54;43.01
47742;BME280;33504;52.066;6.096;2023-01-27T13:02:18;102678.67;;;7.81;42.64
47742;BME280;33504;52.066;6.096;2023-01-27T13:04:51;102680.19;;;7.78;42.66
47742;BME280;33504;52.066;6.096;2023-01-27T13:07:24;102679.60;;;7.65;42.56
47742;BME280;33504;52.066;6.096;2023-01-27T13:09:54;102677.96;;;7.58;42.73
47742;BME280;33504;52.066;6.096;2023-01-27T13:12:24;102677.28;;;7.28;42.65